Kirriemuir, United Kingdom
Current Conditions -  °F | °C
As of 7:20 AM on Thursday 23 Oct 2014 (Local Time) from EGPN Reporting Station
Broken Clouds Broken Clouds  
Wind Chill: 12°   Ceiling: 2200
Heat Index: 12°   Visibility: 6mi
Dew Point: 10°   Wind: 20mph
Humidity: 88%   Direction: 230°SW
Pressure: 29.77"   Gusts: NA
Location:  56.67°N, 3°W
Report Text: EGPN 230620Z 23017KT 9999 SCT012 BKN022 12/10 Q1008
Loading
Personal Weather Stations






























Interactive Weather Map
Tropical Storm Tracking
New forecast layout! Learn more

10-Day Weather Forecast

Advertisements
Track Severe Weather on mobile